sensor_id;sensor_type;location;lat;lon;timestamp;P1;durP1;ratioP1;P2;durP2;ratioP2
10687;SDS011;5392;42.688;23.298;2022-10-31T00:00:47;1.60;;;0.82;;
10687;SDS011;5392;42.688;23.298;2022-10-31T00:03:15;3.53;;;0.90;;
10687;SDS011;5392;42.688;23.298;2022-10-31T00:05:46;3.42;;;0.90;;
10687;SDS011;5392;42.688;23.298;2022-10-31T00:08:14;2.47;;;0.90;;
10687;SDS011;5392;42.688;23.298;2022-10-31T00:10:43;3.78;;;1.00;;
10687;SDS011;5392;42.688;23.298;2022-10-31T00:13:10;1.08;;;1.00;;
10687;SDS011;5392;42.688;23.298;2022-10-31T00:15:39;2.92;;;1.15;;
10687;SDS011;5392;42.688;23.298;2022-10-31T00:18:07;2.15;;;0.98;;
10687;SDS011;5392;42.688;23.298;2022-10-31T00:20:35;3.50;;;1.00;;
10687;SDS011;5392;42.688;23.298;2022-10-31T00:23:02;2.10;;;0.88;;
10687;SDS011;5392;42.688;23.298;2022-10-31T00:25:32;2.70;;;0.98;;
10687;SDS011;5392;42.688;23.298;2022-10-31T00:28:02;2.47;;;0.70;;
10687;SDS011;5392;42.688;23.298;2022-10-31T00:30:30;2.65;;;0.77;;
10687;SDS011;5392;42.688;23.298;2022-10-31T00:32:57;1.65;;;0.80;;
10687;SDS011;5392;42.688;23.298;2022-10-31T00:35:25;3.40;;;0.90;;
10687;SDS011;5392;42.688;23.298;2022-10-31T00:37:51;2.70;;;1.02;;
10687;SDS011;5392;42.688;23.298;2022-10-31T00:40:18;1.58;;;1.15;;
10687;SDS011;5392;42.688;23.298;2022-10-31T00:42:45;2.58;;;1.00;;
10687;SDS011;5392;42.688;23.298;2022-10-31T00:45:12;1.40;;;1.20;;
10687;SDS011;5392;42.688;23.298;2022-10-31T00:47:39;1.83;;;1.02;;
10687;SDS011;5392;42.688;23.298;2022-10-31T00:50:05;1.17;;;0.65;;
10687;SDS011;5392;42.688;23.298;2022-10-31T00:52:33;0.70;;;0.70;;
10687;SDS011;5392;42.688;23.298;2022-10-31T00:55:00;2.03;;;0.95;;
10687;SDS011;5392;42.688;23.298;2022-10-31T00:57:27;2.05;;;1.02;;
10687;SDS011;5392;42.688;23.298;2022-10-31T00:59:53;1.73;;;1.27;;
10687;SDS011;5392;42.688;23.298;2022-10-31T01:02:20;2.05;;;1.00;;
10687;SDS011;5392;42.688;23.298;2022-10-31T01:04:47;2.65;;;1.00;;
10687;SDS011;5392;42.688;23.298;2022-10-31T01:07:14;6.45;;;1.00;;
10687;SDS011;5392;42.688;23.298;2022-10-31T01:09:41;1.30;;;0.60;;
10687;SDS011;5392;42.688;23.298;2022-10-31T01:12:08;0.60;;;0.60;;
10687;SDS011;5392;42.688;23.298;2022-10-31T01:14:34;2.15;;;0.73;;
10687;SDS011;5392;42.688;23.298;2022-10-31T01:17:01;0.68;;;0.68;;
10687;SDS011;5392;42.688;23.298;2022-10-31T01:19:28;2.83;;;0.82;;
10687;SDS011;5392;42.688;23.298;2022-10-31T01:21:55;3.28;;;0.77;;
10687;SDS011;5392;42.688;23.298;2022-10-31T01:24:22;2.47;;;0.88;;
10687;SDS011;5392;42.688;23.298;2022-10-31T01:26:48;1.75;;;0.80;;
10687;SDS011;5392;42.688;23.298;2022-10-31T01:29:15;1.98;;;0.70;;
10687;SDS011;5392;42.688;23.298;2022-10-31T01:31:42;3.15;;;1.02;;
10687;SDS011;5392;42.688;23.298;2022-10-31T01:34:11;3.40;;;0.77;;
10687;SDS011;5392;42.688;23.298;2022-10-31T01:36:40;2.55;;;1.08;;
10687;SDS011;5392;42.688;23.298;2022-10-31T01:39:13;2.35;;;1.20;;
10687;SDS011;5392;42.688;23.298;2022-10-31T01:41:44;6.28;;;1.50;;
10687;SDS011;5392;42.688;23.298;2022-10-31T01:49:21;3.45;;;1.35;;
10687;SDS011;5392;42.688;23.298;2022-10-31T01:51:58;2.83;;;1.17;;
10687;SDS011;5392;42.688;23.298;2022-10-31T01:54:39;2.58;;;1.38;;
10687;SDS011;5392;42.688;23.298;2022-10-31T01:57:08;3.75;;;1.63;;
10687;SDS011;5392;42.688;23.298;2022-10-31T01:59:40;2.33;;;2.00;;
10687;SDS011;5392;42.688;23.298;2022-10-31T02:02:11;3.42;;;2.58;;
10687;SDS011;5392;42.688;23.298;2022-10-31T02:04:39;5.10;;;1.90;;
10687;SDS011;5392;42.688;23.298;2022-10-31T02:07:08;1.92;;;1.83;;
10687;SDS011;5392;42.688;23.298;2022-10-31T02:09:38;3.00;;;1.92;;
10687;SDS011;5392;42.688;23.298;2022-10-31T02:12:07;4.13;;;2.10;;
10687;SDS011;5392;42.688;23.298;2022-10-31T02:14:36;2.63;;;1.58;;
10687;SDS011;5392;42.688;23.298;2022-10-31T02:17:03;2.38;;;1.95;;
10687;SDS011;5392;42.688;23.298;2022-10-31T02:19:33;2.28;;;2.13;;
10687;SDS011;5392;42.688;23.298;2022-10-31T02:24:58;4.82;;;2.40;;
10687;SDS011;5392;42.688;23.298;2022-10-31T02:30:21;3.65;;;2.30;;
10687;SDS011;5392;42.688;23.298;2022-10-31T02:41:09;4.88;;;2.00;;
10687;SDS011;5392;42.688;23.298;2022-10-31T02:44:14;3.22;;;2.65;;
10687;SDS011;5392;42.688;23.298;2022-10-31T02:47:05;3.78;;;2.75;;
10687;SDS011;5392;42.688;23.298;2022-10-31T02:49:45;3.03;;;2.70;;
10687;SDS011;5392;42.688;23.298;2022-10-31T02:52:28;4.70;;;2.33;;
10687;SDS011;5392;42.688;23.298;2022-10-31T02:54:56;3.55;;;2.97;;
10687;SDS011;5392;42.688;23.298;2022-10-31T02:57:30;4.55;;;3.17;;
10687;SDS011;5392;42.688;23.298;2022-10-31T03:00:03;6.57;;;3.75;;
10687;SDS011;5392;42.688;23.298;2022-10-31T03:02:43;3.35;;;3.13;;
10687;SDS011;5392;42.688;23.298;2022-10-31T03:10:42;4.68;;;4.07;;
10687;SDS011;5392;42.688;23.298;2022-10-31T03:13:46;6.13;;;5.53;;
10687;SDS011;5392;42.688;23.298;2022-10-31T03:16:45;14.25;;;9.25;;
10687;SDS011;5392;42.688;23.298;2022-10-31T03:19:26;7.18;;;5.50;;
10687;SDS011;5392;42.688;23.298;2022-10-31T03:21:59;11.30;;;6.25;;
10687;SDS011;5392;42.688;23.298;2022-10-31T03:24:34;12.60;;;10.13;;
10687;SDS011;5392;42.688;23.298;2022-10-31T03:27:03;26.42;;;17.63;;
10687;SDS011;5392;42.688;23.298;2022-10-31T03:29:33;44.63;;;27.92;;
10687;SDS011;5392;42.688;23.298;2022-10-31T03:32:24;46.13;;;31.60;;
10687;SDS011;5392;42.688;23.298;2022-10-31T03:34:56;16.77;;;12.90;;
10687;SDS011;5392;42.688;23.298;2022-10-31T03:37:26;43.83;;;28.60;;
10687;SDS011;5392;42.688;23.298;2022-10-31T03:39:55;28.63;;;19.52;;
10687;SDS011;5392;42.688;23.298;2022-10-31T03:45:29;10.82;;;7.15;;
10687;SDS011;5392;42.688;23.298;2022-10-31T03:48:00;9.52;;;5.07;;
10687;SDS011;5392;42.688;23.298;2022-10-31T03:50:29;6.72;;;4.70;;
10687;SDS011;5392;42.688;23.298;2022-10-31T03:53:09;4.78;;;4.30;;
10687;SDS011;5392;42.688;23.298;2022-10-31T03:55:49;7.60;;;4.68;;
10687;SDS011;5392;42.688;23.298;2022-10-31T03:58:21;8.63;;;4.78;;
10687;SDS011;5392;42.688;23.298;2022-10-31T04:00:51;6.50;;;4.57;;
10687;SDS011;5392;42.688;23.298;2022-10-31T04:03:23;6.55;;;4.97;;
10687;SDS011;5392;42.688;23.298;2022-10-31T04:05:53;6.47;;;4.95;;
10687;SDS011;5392;42.688;23.298;2022-10-31T04:08:24;8.38;;;4.47;;
10687;SDS011;5392;42.688;23.298;2022-10-31T04:10:56;8.88;;;5.93;;
10687;SDS011;5392;42.688;23.298;2022-10-31T04:13:26;8.88;;;5.47;;
10687;SDS011;5392;42.688;23.298;2022-10-31T04:15:55;8.45;;;4.93;;
10687;SDS011;5392;42.688;23.298;2022-10-31T04:18:23;9.38;;;5.78;;
10687;SDS011;5392;42.688;23.298;2022-10-31T04:20:58;5.55;;;4.88;;
10687;SDS011;5392;42.688;23.298;2022-10-31T04:23:27;6.90;;;5.82;;
10687;SDS011;5392;42.688;23.298;2022-10-31T04:25:54;6.15;;;5.60;;
10687;SDS011;5392;42.688;23.298;2022-10-31T04:28:21;5.55;;;5.00;;
10687;SDS011;5392;42.688;23.298;2022-10-31T04:30:47;8.88;;;4.88;;
10687;SDS011;5392;42.688;23.298;2022-10-31T04:33:14;7.45;;;5.60;;
10687;SDS011;5392;42.688;23.298;2022-10-31T04:35:41;8.50;;;5.75;;
10687;SDS011;5392;42.688;23.298;2022-10-31T04:38:07;8.35;;;6.00;;
10687;SDS011;5392;42.688;23.298;2022-10-31T04:40:34;9.20;;;6.00;;
10687;SDS011;5392;42.688;23.298;2022-10-31T04:43:01;8.45;;;5.95;;
10687;SDS011;5392;42.688;23.298;2022-10-31T04:45:28;8.35;;;5.57;;
10687;SDS011;5392;42.688;23.298;2022-10-31T04:47:55;7.43;;;6.28;;
10687;SDS011;5392;42.688;23.298;2022-10-31T04:50:22;7.43;;;6.00;;
10687;SDS011;5392;42.688;23.298;2022-10-31T04:52:49;16.17;;;6.93;;
10687;SDS011;5392;42.688;23.298;2022-10-31T04:55:16;8.93;;;6.53;;
10687;SDS011;5392;42.688;23.298;2022-10-31T04:57:47;9.57;;;7.15;;
10687;SDS011;5392;42.688;23.298;2022-10-31T05:00:16;13.45;;;7.50;;
10687;SDS011;5392;42.688;23.298;2022-10-31T05:02:45;10.07;;;7.15;;
10687;SDS011;5392;42.688;23.298;2022-10-31T05:05:17;6.40;;;5.80;;
10687;SDS011;5392;42.688;23.298;2022-10-31T05:07:47;11.13;;;6.47;;
10687;SDS011;5392;42.688;23.298;2022-10-31T05:10:16;11.23;;;7.18;;
10687;SDS011;5392;42.688;23.298;2022-10-31T05:12:45;9.88;;;6.50;;
10687;SDS011;5392;42.688;23.298;2022-10-31T05:15:16;12.70;;;6.22;;
10687;SDS011;5392;42.688;23.298;2022-10-31T05:17:44;13.75;;;8.15;;
10687;SDS011;5392;42.688;23.298;2022-10-31T05:20:12;15.07;;;7.53;;
10687;SDS011;5392;42.688;23.298;2022-10-31T05:22:47;13.05;;;7.03;;
10687;SDS011;5392;42.688;23.298;2022-10-31T05:25:16;10.63;;;6.07;;
10687;SDS011;5392;42.688;23.298;2022-10-31T05:27:44;10.93;;;6.63;;
10687;SDS011;5392;42.688;23.298;2022-10-31T05:30:13;11.55;;;7.35;;
10687;SDS011;5392;42.688;23.298;2022-10-31T05:32:43;18.75;;;9.27;;
10687;SDS011;5392;42.688;23.298;2022-10-31T05:35:12;11.30;;;7.70;;
10687;SDS011;5392;42.688;23.298;2022-10-31T05:37:42;11.15;;;7.03;;
10687;SDS011;5392;42.688;23.298;2022-10-31T05:40:09;18.75;;;8.95;;
10687;SDS011;5392;42.688;23.298;2022-10-31T05:42:40;13.57;;;8.10;;
10687;SDS011;5392;42.688;23.298;2022-10-31T05:45:08;15.65;;;9.55;;
10687;SDS011;5392;42.688;23.298;2022-10-31T05:47:36;17.20;;;8.90;;
10687;SDS011;5392;42.688;23.298;2022-10-31T05:50:05;14.13;;;8.10;;
10687;SDS011;5392;42.688;23.298;2022-10-31T05:52:32;15.10;;;7.80;;
10687;SDS011;5392;42.688;23.298;2022-10-31T05:55:00;14.98;;;7.90;;
10687;SDS011;5392;42.688;23.298;2022-10-31T05:57:27;12.45;;;8.27;;
10687;SDS011;5392;42.688;23.298;2022-10-31T05:59:55;20.40;;;9.15;;
10687;SDS011;5392;42.688;23.298;2022-10-31T06:02:22;17.02;;;7.70;;
10687;SDS011;5392;42.688;23.298;2022-10-31T06:04:48;20.30;;;8.82;;
10687;SDS011;5392;42.688;23.298;2022-10-31T06:07:15;13.48;;;8.10;;
10687;SDS011;5392;42.688;23.298;2022-10-31T06:09:42;19.75;;;8.88;;
10687;SDS011;5392;42.688;23.298;2022-10-31T06:12:08;16.65;;;8.15;;
10687;SDS011;5392;42.688;23.298;2022-10-31T06:14:35;16.52;;;8.93;;
10687;SDS011;5392;42.688;23.298;2022-10-31T06:17:01;16.67;;;8.75;;
10687;SDS011;5392;42.688;23.298;2022-10-31T06:19:28;16.67;;;8.30;;
10687;SDS011;5392;42.688;23.298;2022-10-31T06:21:55;15.35;;;7.65;;
10687;SDS011;5392;42.688;23.298;2022-10-31T06:24:22;14.52;;;7.65;;
10687;SDS011;5392;42.688;23.298;2022-10-31T06:26:49;14.02;;;9.80;;
10687;SDS011;5392;42.688;23.298;2022-10-31T06:29:15;11.20;;;8.23;;
10687;SDS011;5392;42.688;23.298;2022-10-31T06:31:42;14.20;;;8.50;;
10687;SDS011;5392;42.688;23.298;2022-10-31T06:34:08;18.50;;;8.60;;
10687;SDS011;5392;42.688;23.298;2022-10-31T06:36:35;12.80;;;8.50;;
10687;SDS011;5392;42.688;23.298;2022-10-31T06:39:02;15.63;;;9.20;;
10687;SDS011;5392;42.688;23.298;2022-10-31T06:41:28;11.38;;;8.82;;
10687;SDS011;5392;42.688;23.298;2022-10-31T06:43:55;13.30;;;8.60;;
10687;SDS011;5392;42.688;23.298;2022-10-31T06:46:22;15.65;;;8.02;;
10687;SDS011;5392;42.688;23.298;2022-10-31T06:48:48;16.33;;;9.30;;
10687;SDS011;5392;42.688;23.298;2022-10-31T06:51:15;15.48;;;8.05;;
10687;SDS011;5392;42.688;23.298;2022-10-31T06:53:42;13.45;;;9.50;;
10687;SDS011;5392;42.688;23.298;2022-10-31T06:56:09;13.35;;;8.10;;
10687;SDS011;5392;42.688;23.298;2022-10-31T06:58:35;11.93;;;8.20;;
10687;SDS011;5392;42.688;23.298;2022-10-31T07:01:02;13.32;;;8.23;;
10687;SDS011;5392;42.688;23.298;2022-10-31T07:03:29;9.45;;;8.38;;
10687;SDS011;5392;42.688;23.298;2022-10-31T07:05:56;9.15;;;8.35;;
10687;SDS011;5392;42.688;23.298;2022-10-31T07:08:23;11.75;;;8.77;;
10687;SDS011;5392;42.688;23.298;2022-10-31T07:10:53;16.48;;;9.68;;
10687;SDS011;5392;42.688;23.298;2022-10-31T07:13:22;10.00;;;8.43;;
10687;SDS011;5392;42.688;23.298;2022-10-31T07:15:53;10.93;;;8.95;;
10687;SDS011;5392;42.688;23.298;2022-10-31T07:18:21;17.80;;;9.30;;
10687;SDS011;5392;42.688;23.298;2022-10-31T07:20:48;11.82;;;9.73;;
10687;SDS011;5392;42.688;23.298;2022-10-31T07:23:15;10.57;;;9.23;;
10687;SDS011;5392;42.688;23.298;2022-10-31T07:25:41;12.73;;;9.57;;
10687;SDS011;5392;42.688;23.298;2022-10-31T07:28:08;14.70;;;10.68;;
10687;SDS011;5392;42.688;23.298;2022-10-31T07:30:36;12.43;;;10.13;;
10687;SDS011;5392;42.688;23.298;2022-10-31T07:33:04;14.68;;;11.00;;
10687;SDS011;5392;42.688;23.298;2022-10-31T07:35:31;19.73;;;10.13;;
10687;SDS011;5392;42.688;23.298;2022-10-31T07:38:06;19.38;;;11.38;;
10687;SDS011;5392;42.688;23.298;2022-10-31T07:40:34;17.42;;;9.68;;
10687;SDS011;5392;42.688;23.298;2022-10-31T07:43:01;19.45;;;11.50;;
10687;SDS011;5392;42.688;23.298;2022-10-31T07:45:28;18.33;;;11.40;;
10687;SDS011;5392;42.688;23.298;2022-10-31T07:47:55;12.88;;;11.48;;
10687;SDS011;5392;42.688;23.298;2022-10-31T07:50:23;17.15;;;11.88;;
10687;SDS011;5392;42.688;23.298;2022-10-31T07:53:05;21.02;;;11.23;;
10687;SDS011;5392;42.688;23.298;2022-10-31T07:55:33;27.60;;;12.25;;
10687;SDS011;5392;42.688;23.298;2022-10-31T07:58:03;17.58;;;11.65;;
10687;SDS011;5392;42.688;23.298;2022-10-31T08:00:35;16.40;;;10.55;;
10687;SDS011;5392;42.688;23.298;2022-10-31T08:03:04;27.58;;;12.23;;
10687;SDS011;5392;42.688;23.298;2022-10-31T08:05:39;18.58;;;11.50;;
10687;SDS011;5392;42.688;23.298;2022-10-31T08:08:07;13.52;;;10.70;;
10687;SDS011;5392;42.688;23.298;2022-10-31T08:10:35;19.33;;;11.48;;
10687;SDS011;5392;42.688;23.298;2022-10-31T08:13:06;17.08;;;10.88;;
10687;SDS011;5392;42.688;23.298;2022-10-31T08:15:34;12.60;;;11.20;;
10687;SDS011;5392;42.688;23.298;2022-10-31T08:18:04;13.90;;;11.05;;
10687;SDS011;5392;42.688;23.298;2022-10-31T08:20:32;12.80;;;11.15;;
10687;SDS011;5392;42.688;23.298;2022-10-31T08:23:00;16.23;;;11.35;;
10687;SDS011;5392;42.688;23.298;2022-10-31T08:25:29;13.85;;;11.27;;
10687;SDS011;5392;42.688;23.298;2022-10-31T08:28:03;16.15;;;12.55;;
10687;SDS011;5392;42.688;23.298;2022-10-31T08:30:31;16.88;;;13.85;;
10687;SDS011;5392;42.688;23.298;2022-10-31T08:33:08;17.25;;;11.93;;
10687;SDS011;5392;42.688;23.298;2022-10-31T08:35:40;18.50;;;12.65;;
10687;SDS011;5392;42.688;23.298;2022-10-31T08:38:08;18.92;;;13.30;;
10687;SDS011;5392;42.688;23.298;2022-10-31T08:40:36;13.40;;;12.02;;
10687;SDS011;5392;42.688;23.298;2022-10-31T08:43:21;18.60;;;12.90;;
10687;SDS011;5392;42.688;23.298;2022-10-31T08:45:48;17.55;;;12.10;;
10687;SDS011;5392;42.688;23.298;2022-10-31T08:48:16;13.27;;;10.98;;
10687;SDS011;5392;42.688;23.298;2022-10-31T08:50:44;17.15;;;11.32;;
10687;SDS011;5392;42.688;23.298;2022-10-31T08:53:12;16.65;;;11.45;;
10687;SDS011;5392;42.688;23.298;2022-10-31T08:55:43;12.20;;;9.77;;
10687;SDS011;5392;42.688;23.298;2022-10-31T08:58:12;11.70;;;8.85;;
10687;SDS011;5392;42.688;23.298;2022-10-31T09:00:40;13.60;;;8.68;;
10687;SDS011;5392;42.688;23.298;2022-10-31T09:03:11;14.77;;;9.25;;
10687;SDS011;5392;42.688;23.298;2022-10-31T09:05:40;11.93;;;8.73;;
10687;SDS011;5392;42.688;23.298;2022-10-31T09:08:07;10.68;;;8.95;;
10687;SDS011;5392;42.688;23.298;2022-10-31T09:10:41;11.30;;;8.48;;
10687;SDS011;5392;42.688;23.298;2022-10-31T09:13:09;14.80;;;8.32;;
10687;SDS011;5392;42.688;23.298;2022-10-31T09:15:41;10.45;;;8.25;;
10687;SDS011;5392;42.688;23.298;2022-10-31T09:18:10;20.50;;;10.30;;
10687;SDS011;5392;42.688;23.298;2022-10-31T09:20:38;9.77;;;8.65;;
10687;SDS011;5392;42.688;23.298;2022-10-31T09:23:06;13.35;;;9.48;;
10687;SDS011;5392;42.688;23.298;2022-10-31T09:25:36;11.93;;;9.70;;
10687;SDS011;5392;42.688;23.298;2022-10-31T09:28:04;8.63;;;7.82;;
10687;SDS011;5392;42.688;23.298;2022-10-31T09:30:32;10.98;;;7.68;;
10687;SDS011;5392;42.688;23.298;2022-10-31T09:33:01;10.68;;;7.40;;
10687;SDS011;5392;42.688;23.298;2022-10-31T09:35:30;8.60;;;6.85;;
10687;SDS011;5392;42.688;23.298;2022-10-31T09:37:57;9.50;;;6.90;;
10687;SDS011;5392;42.688;23.298;2022-10-31T09:40:31;8.90;;;6.75;;
10687;SDS011;5392;42.688;23.298;2022-10-31T09:43:07;10.40;;;7.72;;
10687;SDS011;5392;42.688;23.298;2022-10-31T09:48:31;9.57;;;6.00;;
10687;SDS011;5392;42.688;23.298;2022-10-31T09:51:12;8.23;;;5.72;;
10687;SDS011;5392;42.688;23.298;2022-10-31T09:56:22;5.18;;;4.60;;
10687;SDS011;5392;42.688;23.298;2022-10-31T09:58:53;6.40;;;5.47;;
10687;SDS011;5392;42.688;23.298;2022-10-31T10:04:02;6.22;;;5.47;;
10687;SDS011;5392;42.688;23.298;2022-10-31T10:06:49;8.50;;;5.55;;
10687;SDS011;5392;42.688;23.298;2022-10-31T10:09:18;8.40;;;5.13;;
10687;SDS011;5392;42.688;23.298;2022-10-31T10:17:50;6.70;;;3.28;;
10687;SDS011;5392;42.688;23.298;2022-10-31T10:20:34;8.63;;;2.88;;
10687;SDS011;5392;42.688;23.298;2022-10-31T10:26:18;2.05;;;1.27;;
10687;SDS011;5392;42.688;23.298;2022-10-31T10:28:49;7.00;;;1.95;;
10687;SDS011;5392;42.688;23.298;2022-10-31T10:31:24;7.60;;;1.73;;
10687;SDS011;5392;42.688;23.298;2022-10-31T10:36:33;7.28;;;1.25;;
10687;SDS011;5392;42.688;23.298;2022-10-31T10:39:20;4.60;;;1.52;;
10687;SDS011;5392;42.688;23.298;2022-10-31T10:41:51;7.13;;;2.40;;
10687;SDS011;5392;42.688;23.298;2022-10-31T10:44:42;4.95;;;1.50;;
10687;SDS011;5392;42.688;23.298;2022-10-31T10:47:37;10.90;;;2.25;;
10687;SDS011;5392;42.688;23.298;2022-10-31T10:50:14;2.28;;;1.10;;
10687;SDS011;5392;42.688;23.298;2022-10-31T10:55:32;12.35;;;1.73;;
10687;SDS011;5392;42.688;23.298;2022-10-31T10:58:09;2.55;;;1.17;;
10687;SDS011;5392;42.688;23.298;2022-10-31T11:00:40;10.68;;;1.67;;
10687;SDS011;5392;42.688;23.298;2022-10-31T11:03:09;6.70;;;1.42;;
10687;SDS011;5392;42.688;23.298;2022-10-31T11:14:03;7.80;;;1.17;;
10687;SDS011;5392;42.688;23.298;2022-10-31T11:16:35;2.03;;;1.00;;
10687;SDS011;5392;42.688;23.298;2022-10-31T11:19:28;5.97;;;0.88;;
10687;SDS011;5392;42.688;23.298;2022-10-31T11:21:53;4.45;;;1.50;;
10687;SDS011;5392;42.688;23.298;2022-10-31T11:24:21;5.85;;;1.63;;
10687;SDS011;5392;42.688;23.298;2022-10-31T11:27:02;7.78;;;1.17;;
10687;SDS011;5392;42.688;23.298;2022-10-31T11:29:37;5.80;;;1.48;;
10687;SDS011;5392;42.688;23.298;2022-10-31T11:32:04;2.25;;;0.60;;
10687;SDS011;5392;42.688;23.298;2022-10-31T11:34:52;3.88;;;0.98;;
10687;SDS011;5392;42.688;23.298;2022-10-31T11:37:27;3.70;;;0.90;;
10687;SDS011;5392;42.688;23.298;2022-10-31T11:39:57;3.33;;;0.90;;
10687;SDS011;5392;42.688;23.298;2022-10-31T11:42:27;4.10;;;0.90;;
10687;SDS011;5392;42.688;23.298;2022-10-31T11:44:56;4.45;;;0.73;;
10687;SDS011;5392;42.688;23.298;2022-10-31T11:47:25;7.68;;;0.80;;
10687;SDS011;5392;42.688;23.298;2022-10-31T11:49:54;3.30;;;0.80;;
10687;SDS011;5392;42.688;23.298;2022-10-31T11:52:26;7.10;;;1.40;;
10687;SDS011;5392;42.688;23.298;2022-10-31T11:57:43;7.18;;;1.55;;
10687;SDS011;5392;42.688;23.298;2022-10-31T12:05:44;9.07;;;1.00;;
10687;SDS011;5392;42.688;23.298;2022-10-31T12:08:13;98.43;;;10.38;;
10687;SDS011;5392;42.688;23.298;2022-10-31T12:20:22;6.15;;;1.10;;
10687;SDS011;5392;42.688;23.298;2022-10-31T12:25:47;4.45;;;1.30;;
10687;SDS011;5392;42.688;23.298;2022-10-31T12:31:36;7.75;;;0.77;;
10687;SDS011;5392;42.688;23.298;2022-10-31T12:37:04;4.03;;;1.17;;
10687;SDS011;5392;42.688;23.298;2022-10-31T12:53:47;4.93;;;1.27;;
10687;SDS011;5392;42.688;23.298;2022-10-31T12:56:27;5.30;;;1.40;;
10687;SDS011;5392;42.688;23.298;2022-10-31T12:58:59;2.60;;;1.30;;
10687;SDS011;5392;42.688;23.298;2022-10-31T13:01:42;4.57;;;1.42;;
10687;SDS011;5392;42.688;23.298;2022-10-31T13:04:16;5.85;;;1.08;;
10687;SDS011;5392;42.688;23.298;2022-10-31T13:06:49;4.45;;;0.90;;
10687;SDS011;5392;42.688;23.298;2022-10-31T13:09:28;9.35;;;1.70;;
10687;SDS011;5392;42.688;23.298;2022-10-31T13:12:07;5.53;;;1.30;;
10687;SDS011;5392;42.688;23.298;2022-10-31T13:17:10;8.82;;;1.90;;
10687;SDS011;5392;42.688;23.298;2022-10-31T13:19:51;8.40;;;2.63;;
10687;SDS011;5392;42.688;23.298;2022-10-31T13:22:29;7.82;;;1.92;;
10687;SDS011;5392;42.688;23.298;2022-10-31T13:25:03;11.82;;;2.25;;
10687;SDS011;5392;42.688;23.298;2022-10-31T13:30:33;13.98;;;1.70;;
10687;SDS011;5392;42.688;23.298;2022-10-31T13:33:14;6.72;;;1.25;;
10687;SDS011;5392;42.688;23.298;2022-10-31T13:38:46;4.30;;;1.00;;
10687;SDS011;5392;42.688;23.298;2022-10-31T13:41:22;5.28;;;1.23;;
10687;SDS011;5392;42.688;23.298;2022-10-31T13:44:18;3.65;;;1.00;;
10687;SDS011;5392;42.688;23.298;2022-10-31T13:46:50;7.75;;;1.20;;
10687;SDS011;5392;42.688;23.298;2022-10-31T13:49:39;5.25;;;1.98;;
10687;SDS011;5392;42.688;23.298;2022-10-31T13:54:39;11.02;;;2.05;;
10687;SDS011;5392;42.688;23.298;2022-10-31T14:00:00;6.25;;;1.20;;
10687;SDS011;5392;42.688;23.298;2022-10-31T14:02:31;8.00;;;1.00;;
10687;SDS011;5392;42.688;23.298;2022-10-31T14:05:06;5.35;;;1.08;;
10687;SDS011;5392;42.688;23.298;2022-10-31T14:07:45;4.88;;;1.35;;
10687;SDS011;5392;42.688;23.298;2022-10-31T14:10:20;2.55;;;1.40;;
10687;SDS011;5392;42.688;23.298;2022-10-31T14:13:13;7.35;;;1.33;;
10687;SDS011;5392;42.688;23.298;2022-10-31T14:15:42;6.30;;;1.38;;
10687;SDS011;5392;42.688;23.298;2022-10-31T14:18:22;7.93;;;1.20;;
10687;SDS011;5392;42.688;23.298;2022-10-31T14:20:51;5.80;;;1.20;;
10687;SDS011;5392;42.688;23.298;2022-10-31T14:26:07;8.23;;;0.93;;
10687;SDS011;5392;42.688;23.298;2022-10-31T14:28:48;4.70;;;1.27;;
10687;SDS011;5392;42.688;23.298;2022-10-31T14:31:36;5.82;;;1.30;;
10687;SDS011;5392;42.688;23.298;2022-10-31T14:36:50;7.35;;;0.95;;
10687;SDS011;5392;42.688;23.298;2022-10-31T14:39:21;5.03;;;1.02;;
10687;SDS011;5392;42.688;23.298;2022-10-31T14:41:59;7.10;;;0.88;;
10687;SDS011;5392;42.688;23.298;2022-10-31T14:44:34;9.15;;;1.17;;
10687;SDS011;5392;42.688;23.298;2022-10-31T14:50:00;6.03;;;0.93;;
10687;SDS011;5392;42.688;23.298;2022-10-31T14:52:34;7.32;;;0.90;;
10687;SDS011;5392;42.688;23.298;2022-10-31T14:55:05;8.13;;;1.05;;
10687;SDS011;5392;42.688;23.298;2022-10-31T14:57:37;10.35;;;1.80;;
10687;SDS011;5392;42.688;23.298;2022-10-31T15:00:16;7.88;;;1.20;;
10687;SDS011;5392;42.688;23.298;2022-10-31T15:05:51;4.93;;;0.82;;
10687;SDS011;5392;42.688;23.298;2022-10-31T15:08:38;10.75;;;0.90;;
10687;SDS011;5392;42.688;23.298;2022-10-31T15:11:17;12.02;;;1.70;;
10687;SDS011;5392;42.688;23.298;2022-10-31T15:16:30;10.93;;;1.40;;
10687;SDS011;5392;42.688;23.298;2022-10-31T15:19:04;12.13;;;1.85;;
10687;SDS011;5392;42.688;23.298;2022-10-31T15:21:33;14.07;;;2.40;;
10687;SDS011;5392;42.688;23.298;2022-10-31T15:24:06;18.67;;;3.92;;
10687;SDS011;5392;42.688;23.298;2022-10-31T15:26:38;11.75;;;1.92;;
10687;SDS011;5392;42.688;23.298;2022-10-31T15:29:13;9.35;;;2.47;;
10687;SDS011;5392;42.688;23.298;2022-10-31T15:31:52;11.50;;;2.78;;
10687;SDS011;5392;42.688;23.298;2022-10-31T15:37:16;22.20;;;3.95;;
10687;SDS011;5392;42.688;23.298;2022-10-31T15:39:48;16.42;;;3.33;;
10687;SDS011;5392;42.688;23.298;2022-10-31T15:45:00;8.85;;;3.35;;
10687;SDS011;5392;42.688;23.298;2022-10-31T15:47:29;9.82;;;2.45;;
10687;SDS011;5392;42.688;23.298;2022-10-31T15:49:58;11.50;;;2.95;;
10687;SDS011;5392;42.688;23.298;2022-10-31T15:52:35;17.88;;;3.65;;
10687;SDS011;5392;42.688;23.298;2022-10-31T15:55:20;12.38;;;3.42;;
10687;SDS011;5392;42.688;23.298;2022-10-31T15:57:55;16.15;;;4.22;;
10687;SDS011;5392;42.688;23.298;2022-10-31T16:00:35;16.92;;;3.55;;
10687;SDS011;5392;42.688;23.298;2022-10-31T16:10:57;17.50;;;3.60;;
10687;SDS011;5392;42.688;23.298;2022-10-31T16:13:33;12.23;;;3.95;;
10687;SDS011;5392;42.688;23.298;2022-10-31T16:16:03;14.30;;;4.07;;
10687;SDS011;5392;42.688;23.298;2022-10-31T16:19:02;14.10;;;4.22;;
10687;SDS011;5392;42.688;23.298;2022-10-31T16:21:35;8.75;;;3.47;;
10687;SDS011;5392;42.688;23.298;2022-10-31T16:24:26;15.18;;;4.13;;
10687;SDS011;5392;42.688;23.298;2022-10-31T16:27:18;11.88;;;2.95;;
10687;SDS011;5392;42.688;23.298;2022-10-31T16:29:51;12.50;;;2.85;;
10687;SDS011;5392;42.688;23.298;2022-10-31T16:37:38;10.93;;;3.25;;
10687;SDS011;5392;42.688;23.298;2022-10-31T16:40:12;11.13;;;3.25;;
10687;SDS011;5392;42.688;23.298;2022-10-31T16:42:43;8.30;;;2.55;;
10687;SDS011;5392;42.688;23.298;2022-10-31T16:47:47;16.15;;;3.33;;
10687;SDS011;5392;42.688;23.298;2022-10-31T16:50:25;10.10;;;3.55;;
10687;SDS011;5392;42.688;23.298;2022-10-31T16:52:53;11.38;;;3.53;;
10687;SDS011;5392;42.688;23.298;2022-10-31T16:55:43;17.58;;;5.00;;
10687;SDS011;5392;42.688;23.298;2022-10-31T16:58:14;20.25;;;6.10;;
10687;SDS011;5392;42.688;23.298;2022-10-31T17:00:43;11.90;;;4.88;;
10687;SDS011;5392;42.688;23.298;2022-10-31T17:03:10;13.80;;;5.68;;
10687;SDS011;5392;42.688;23.298;2022-10-31T17:05:37;17.95;;;5.80;;
10687;SDS011;5392;42.688;23.298;2022-10-31T17:08:04;13.55;;;4.38;;
10687;SDS011;5392;42.688;23.298;2022-10-31T17:10:31;17.73;;;4.53;;
10687;SDS011;5392;42.688;23.298;2022-10-31T17:12:58;7.57;;;4.13;;
10687;SDS011;5392;42.688;23.298;2022-10-31T17:15:30;17.95;;;4.82;;
10687;SDS011;5392;42.688;23.298;2022-10-31T17:18:08;16.88;;;5.93;;
10687;SDS011;5392;42.688;23.298;2022-10-31T17:20:39;22.55;;;7.22;;
10687;SDS011;5392;42.688;23.298;2022-10-31T17:23:11;22.30;;;8.48;;
10687;SDS011;5392;42.688;23.298;2022-10-31T17:25:39;21.77;;;8.57;;
10687;SDS011;5392;42.688;23.298;2022-10-31T17:28:06;28.73;;;11.02;;
10687;SDS011;5392;42.688;23.298;2022-10-31T17:30:34;29.85;;;12.52;;
10687;SDS011;5392;42.688;23.298;2022-10-31T17:33:02;24.80;;;10.95;;
10687;SDS011;5392;42.688;23.298;2022-10-31T17:35:29;29.95;;;11.80;;